createdAt,value
2019-02-17T07:04:22.271Z,-4.10
2019-02-17T07:05:23.591Z,-4.10
2019-02-17T07:06:23.756Z,-3.99
2019-02-17T07:07:23.971Z,-4.02
2019-02-17T07:08:24.180Z,-4.02
2019-02-17T07:09:24.294Z,-3.96
2019-02-17T07:10:24.490Z,-4.05
2019-02-17T07:11:24.780Z,-3.99
2019-02-17T07:12:24.873Z,-4.10
2019-02-17T07:13:25.003Z,-4.00
2019-02-17T07:14:25.145Z,-3.99
2019-02-17T07:15:25.301Z,-4.09
2019-02-17T07:16:25.501Z,-4.07
2019-02-17T07:17:25.699Z,-3.97
2019-02-17T07:18:25.982Z,-3.97
2019-02-17T07:19:27.039Z,-3.99
2019-02-17T07:20:26.160Z,-3.94
2019-02-17T07:21:26.340Z,-3.97
2019-02-17T07:22:27.009Z,-3.89
2019-02-17T07:23:27.727Z,-3.79
2019-02-17T07:24:26.970Z,-3.81
2019-02-17T07:25:30.012Z,-3.81
2019-02-17T07:26:28.270Z,-3.77
2019-02-17T07:27:27.993Z,-3.70
2019-02-17T07:28:28.513Z,-3.65
2019-02-17T07:29:28.656Z,-3.55
2019-02-17T07:30:27.918Z,-3.57
2019-02-17T07:31:34.651Z,-3.59
2019-02-17T07:32:30.192Z,-3.44
2019-02-17T07:33:28.305Z,-3.48
2019-02-17T07:34:28.503Z,-3.34
2019-02-17T07:35:28.735Z,-3.27
2019-02-17T07:36:28.887Z,-3.21
2019-02-17T07:37:33.527Z,-3.16
2019-02-17T07:38:31.304Z,-3.09
2019-02-17T07:39:29.620Z,-3.05
2019-02-17T07:40:29.496Z,-2.97
2019-02-17T07:41:29.644Z,-3.01
2019-02-17T07:42:29.820Z,-2.84
2019-02-17T07:43:29.962Z,-2.74
2019-02-17T07:44:30.097Z,-2.64
2019-02-17T07:45:31.052Z,-2.51
2019-02-17T07:46:30.455Z,-2.41
2019-02-17T07:47:30.569Z,-2.26
2019-02-17T07:48:30.801Z,-2.21
2019-02-17T07:49:30.870Z,-2.06
2019-02-17T07:50:30.997Z,-1.97
2019-02-17T07:51:31.157Z,-1.86
2019-02-17T07:52:31.346Z,-1.83
2019-02-17T07:53:32.175Z,-1.65
2019-02-17T07:54:31.682Z,-1.70
2019-02-17T07:55:31.821Z,-1.61
2019-02-17T07:56:31.979Z,-1.41
2019-02-17T07:57:33.107Z,-1.34
2019-02-17T07:58:33.038Z,-1.16
2019-02-17T07:59:32.376Z,-0.98
2019-02-17T08:00:32.596Z,-0.78
2019-02-17T08:01:32.911Z,-0.66
2019-02-17T08:02:33.039Z,-0.49
2019-02-17T08:03:33.221Z,-0.49
2019-02-17T08:04:33.350Z,-0.32
2019-02-17T08:05:33.521Z,-0.17
2019-02-17T08:06:33.683Z,-0.07
2019-02-17T08:07:33.919Z,0.17
2019-02-17T08:08:34.098Z,0.41
2019-02-17T08:09:34.326Z,0.44
2019-02-17T08:10:34.638Z,0.59
2019-02-17T08:11:34.831Z,0.87
2019-02-17T08:12:34.808Z,1.13
2019-02-17T08:13:35.031Z,1.16
2019-02-17T08:14:35.142Z,1.39
2019-02-17T08:15:35.377Z,1.46
2019-02-17T08:16:35.818Z,1.48
2019-02-17T08:17:35.818Z,1.53
2019-02-17T08:18:36.480Z,1.66
2019-02-17T08:19:36.970Z,1.80
2019-02-17T08:20:36.980Z,1.99
2019-02-17T08:21:36.581Z,2.10
2019-02-17T08:22:36.690Z,2.24
2019-02-17T08:23:36.949Z,2.40
2019-02-17T08:24:37.155Z,2.61
2019-02-17T08:25:37.399Z,2.90
2019-02-17T08:26:37.632Z,3.11
2019-02-17T08:27:37.797Z,3.09
2019-02-17T08:28:37.900Z,3.22
2019-02-17T08:29:38.068Z,3.37
2019-02-17T08:30:38.172Z,3.46
2019-02-17T08:31:38.303Z,3.59
2019-02-17T08:32:38.532Z,3.80
2019-02-17T08:33:38.742Z,3.96
2019-02-17T08:34:38.955Z,4.16
2019-02-17T08:35:40.204Z,4.43
2019-02-17T08:36:39.403Z,4.48
2019-02-17T08:37:39.656Z,4.60
2019-02-17T08:38:39.817Z,4.66
2019-02-17T08:39:39.926Z,5.00
2019-02-17T08:40:40.208Z,5.01
2019-02-17T08:41:40.324Z,5.24
2019-02-17T08:42:40.473Z,5.32
2019-02-17T08:43:40.587Z,5.44
2019-02-17T08:44:40.834Z,5.67
2019-02-17T08:45:40.969Z,5.75
2019-02-17T08:46:41.145Z,5.72
2019-02-17T08:47:41.339Z,5.70
2019-02-17T08:48:41.479Z,5.73
2019-02-17T08:49:41.619Z,5.73
2019-02-17T08:50:41.756Z,5.80
2019-02-17T08:51:42.010Z,5.84
2019-02-17T08:52:42.149Z,5.87
2019-02-17T08:53:42.289Z,5.90
2019-02-17T08:54:42.437Z,5.97
2019-02-17T08:55:42.662Z,6.03
2019-02-17T08:56:42.799Z,6.03
2019-02-17T08:57:42.940Z,6.21
2019-02-17T08:58:43.047Z,6.61
2019-02-17T08:59:43.168Z,6.67
2019-02-17T09:15:34.625Z,10.26
2019-02-17T09:16:35.973Z,10.34
2019-02-17T09:17:36.171Z,10.72
2019-02-17T09:18:36.391Z,10.86
2019-02-17T09:19:36.576Z,11.09
2019-02-17T09:20:36.771Z,11.27
2019-02-17T09:21:36.973Z,11.58
2019-02-17T09:22:37.169Z,11.74
2019-02-17T09:23:37.332Z,12.10
2019-02-17T09:24:37.515Z,12.54
2019-02-17T09:25:37.689Z,12.81
2019-02-17T09:26:37.852Z,12.86
2019-02-17T09:27:38.036Z,12.96
2019-02-17T10:10:20.044Z,20.39
2019-02-17T10:11:29.550Z,20.77
2019-02-17T10:12:20.483Z,21.07
2019-02-17T10:13:55.611Z,21.48
2019-02-17T10:14:21.951Z,21.67
2019-02-17T10:15:22.080Z,21.37
2019-02-17T10:16:22.414Z,21.32
2019-02-17T10:17:22.448Z,21.34
2019-02-17T10:18:22.697Z,21.10
2019-02-17T10:19:23.773Z,21.16
2019-02-17T10:20:24.483Z,20.98
2019-02-17T10:21:23.156Z,20.11
2019-02-17T10:22:23.532Z,19.90
2019-02-17T10:23:23.449Z,19.74
2019-02-17T10:24:23.736Z,19.63
2019-02-17T10:25:23.784Z,19.70
2019-02-17T10:26:24.012Z,19.59
2019-02-17T10:27:25.586Z,19.62
2019-02-17T10:28:24.336Z,19.56
2019-02-17T10:29:24.518Z,20.17
2019-02-17T10:30:24.753Z,20.55
2019-02-17T10:31:24.914Z,20.98
2019-02-17T10:32:25.250Z,21.18
2019-02-17T10:33:25.645Z,21.14
2019-02-17T10:34:26.142Z,21.01
2019-02-17T10:35:25.573Z,21.58
2019-02-17T10:36:25.820Z,22.11
2019-02-17T10:37:26.040Z,22.22
2019-02-17T10:38:29.456Z,22.36
2019-02-17T10:39:27.240Z,21.78
2019-02-17T10:40:28.343Z,21.65
2019-02-17T10:41:27.767Z,22.33
2019-02-17T10:42:30.930Z,22.95
2019-02-17T10:43:28.274Z,23.55
2019-02-17T10:44:27.546Z,24.21
2019-02-17T10:45:31.878Z,24.43
2019-02-17T10:46:28.713Z,24.01
2019-02-17T10:47:27.979Z,24.22
2019-02-17T10:48:29.636Z,24.26
2019-02-17T10:49:28.937Z,24.26
2019-02-17T10:50:28.484Z,23.79
2019-02-17T10:51:29.203Z,24.04
2019-02-17T10:52:29.834Z,23.49
2019-02-17T10:53:29.663Z,21.65
2019-02-17T10:54:29.951Z,21.96
2019-02-17T10:55:30.354Z,21.96
2019-02-17T10:56:29.593Z,22.49
2019-02-17T10:57:29.918Z,22.88
2019-02-17T10:58:30.073Z,23.54
2019-02-17T10:59:33.458Z,24.06
2019-02-17T11:30:30.833Z,24.96
2019-02-17T11:31:32.877Z,25.11
2019-02-17T11:32:32.881Z,25.27
2019-02-17T11:33:32.268Z,25.68
2019-02-17T11:34:32.450Z,25.92
2019-02-17T11:35:32.606Z,26.38
2019-02-17T11:36:32.774Z,26.51
2019-02-17T11:37:32.963Z,26.56
2019-02-17T11:38:33.136Z,26.65
2019-02-17T11:39:33.300Z,26.42
2019-02-17T11:40:33.455Z,25.92
2019-02-17T11:41:33.610Z,26.23
2019-02-17T11:42:33.755Z,26.80
2019-02-17T11:43:33.932Z,27.03
2019-02-17T11:44:34.104Z,27.40
2019-02-17T11:45:34.251Z,27.60
2019-02-17T11:46:34.418Z,27.58
2019-02-17T11:47:34.557Z,27.64
2019-02-17T11:48:34.739Z,27.58
2019-02-17T11:49:34.924Z,27.32
2019-02-17T11:50:35.078Z,27.31
2019-02-17T11:51:35.263Z,27.38
2019-02-17T11:52:35.447Z,27.52
2019-02-17T11:53:35.798Z,27.97
2019-02-17T11:54:36.366Z,27.85
2019-02-17T11:55:36.034Z,27.78
2019-02-17T11:56:36.217Z,27.90
2019-02-17T11:57:36.411Z,28.27
2019-02-17T11:58:36.667Z,28.75
2019-02-17T11:59:36.799Z,29.09
2019-02-17T12:00:36.909Z,29.34
2019-02-17T12:01:37.112Z,29.34
2019-02-17T12:02:37.337Z,29.27
2019-02-17T12:03:37.564Z,29.58
2019-02-17T12:04:37.786Z,29.34
2019-02-17T12:05:38.103Z,29.34
2019-02-17T12:06:38.190Z,29.33
2019-02-17T12:07:38.441Z,29.70
2019-02-17T12:08:38.881Z,30.24
2019-02-17T12:09:38.850Z,30.02
2019-02-17T12:10:39.098Z,29.93
2019-02-17T12:11:39.324Z,30.22
2019-02-17T12:12:39.651Z,30.62
2019-02-17T12:13:39.836Z,30.45
2019-02-17T12:14:40.008Z,29.91
2019-02-17T12:15:40.118Z,29.55
2019-02-17T12:16:40.343Z,29.46
2019-02-17T12:17:40.618Z,29.54
2019-02-17T12:18:40.845Z,29.50
2019-02-17T12:19:40.965Z,29.47
2019-02-17T12:20:41.112Z,29.47
2019-02-17T12:21:41.224Z,28.24
2019-02-17T12:22:41.362Z,28.07
2019-02-17T12:23:41.531Z,27.91
2019-02-17T12:24:41.694Z,27.95
2019-02-17T12:25:41.897Z,27.35
2019-02-17T12:26:42.021Z,26.88
2019-02-17T12:27:42.211Z,26.94
2019-02-17T12:28:42.734Z,27.12
2019-02-17T12:29:42.508Z,26.88
2019-02-17T12:30:42.659Z,27.16
2019-02-17T12:31:42.804Z,27.31
2019-02-17T12:32:43.987Z,26.63
2019-02-17T12:33:43.115Z,26.53
2019-02-17T12:34:43.249Z,25.90
2019-02-17T12:35:43.383Z,25.83
2019-02-17T12:36:43.657Z,25.81
2019-02-17T12:37:43.697Z,25.49
2019-02-17T12:38:43.799Z,25.51
2019-02-17T12:39:44.085Z,25.28
2019-02-17T12:40:44.202Z,25.59
2019-02-17T12:41:44.460Z,26.27
2019-02-17T12:42:44.630Z,26.58
2019-02-17T12:43:45.743Z,26.65
2019-02-17T12:44:44.938Z,26.70
2019-02-17T12:45:45.093Z,25.86
2019-02-17T13:06:23.157Z,27.35
2019-02-17T13:07:25.519Z,27.19
2019-02-17T13:08:24.789Z,27.41
2019-02-17T13:09:25.078Z,27.53
2019-02-17T13:10:25.793Z,27.68
2019-02-17T13:11:25.314Z,28.07
2019-02-17T13:12:25.832Z,28.10
2019-02-17T13:13:27.392Z,27.37
2019-02-17T13:14:26.158Z,26.79
2019-02-17T13:15:27.053Z,26.93
2019-02-17T13:16:26.493Z,26.41
2019-02-17T13:17:27.307Z,25.98
2019-02-17T13:18:26.905Z,26.12
2019-02-17T13:19:27.209Z,26.27
2019-02-17T13:20:27.780Z,26.63
2019-02-17T13:21:28.251Z,26.83
2019-02-17T13:22:27.915Z,26.01
2019-02-17T13:23:27.948Z,25.66
2019-02-17T13:24:28.332Z,25.75
2019-02-17T13:25:31.184Z,25.68
2019-02-17T13:26:29.240Z,25.63
2019-02-17T13:27:28.567Z,25.64
2019-02-17T13:28:28.839Z,25.41
2019-02-17T13:29:29.152Z,25.70
2019-02-17T13:30:28.862Z,26.08
2019-02-17T13:31:29.672Z,26.19
2019-02-17T13:32:29.814Z,25.89
2019-02-17T13:33:38.885Z,25.86
2019-02-17T13:34:31.400Z,25.55
2019-02-17T13:35:30.102Z,25.38
2019-02-17T13:36:30.807Z,25.11
2019-02-17T13:37:30.467Z,24.38
2019-02-17T13:38:30.562Z,24.33
2019-02-17T13:39:31.189Z,24.41
2019-02-17T13:40:31.181Z,24.55
2019-02-17T13:41:31.230Z,24.45
2019-02-17T13:42:31.490Z,24.63
2019-02-17T13:43:32.435Z,23.89
2019-02-17T13:44:31.980Z,23.18
2019-02-17T13:45:32.670Z,22.61
2019-02-17T13:46:32.208Z,22.64
2019-02-17T13:47:32.428Z,22.62
2019-02-17T13:48:32.690Z,22.46
2019-02-17T13:49:32.450Z,22.62
2019-02-17T13:50:33.134Z,23.10
2019-02-17T13:51:33.774Z,23.39
2019-02-17T13:52:33.866Z,23.69
2019-02-17T13:53:34.391Z,24.15
2019-02-17T13:54:33.822Z,24.26
2019-02-17T13:55:34.621Z,24.43
2019-02-17T13:56:34.861Z,24.15
2019-02-17T13:57:40.706Z,23.48
2019-02-17T13:58:34.211Z,23.34
2019-02-17T13:59:34.103Z,23.33
2019-02-17T14:00:33.996Z,23.29
2019-02-17T14:01:34.486Z,23.36
2019-02-17T14:02:34.944Z,23.06
2019-02-17T14:03:35.060Z,22.78
